createdAt,value
2024-05-09T00:00:43.748Z,21.50
2024-05-09T00:03:12.023Z,21.40
2024-05-09T00:05:43.766Z,21.50
2024-05-09T00:08:11.619Z,21.50
2024-05-09T00:10:40.227Z,21.50
2024-05-09T00:13:08.557Z,21.40
2024-05-09T00:15:36.544Z,21.40
2024-05-09T00:18:05.357Z,21.40
2024-05-09T00:20:38.391Z,21.40
2024-05-09T00:23:09.429Z,21.40
2024-05-09T00:25:37.729Z,21.40
2024-05-09T00:28:05.102Z,21.40
2024-05-09T00:30:35.413Z,21.40
2024-05-09T00:33:08.997Z,21.40
2024-05-09T00:35:37.481Z,21.40
2024-05-09T00:38:05.254Z,21.40
2024-05-09T00:40:40.420Z,21.40
2024-05-09T00:43:10.838Z,21.40
2024-05-09T00:45:38.229Z,21.40
2024-05-09T00:48:07.819Z,21.40
2024-05-09T00:50:39.882Z,21.40
2024-05-09T00:53:08.114Z,21.40
2024-05-09T00:55:36.502Z,21.40
2024-05-09T00:58:04.979Z,21.40
2024-05-09T01:00:38.793Z,21.30
2024-05-09T01:03:09.695Z,21.30
2024-05-09T01:05:39.524Z,21.30
2024-05-09T01:08:07.442Z,21.30
2024-05-09T01:10:36.127Z,21.40
2024-05-09T01:13:07.267Z,21.30
2024-05-09T01:15:35.233Z,21.30
2024-05-09T01:18:12.236Z,21.30
2024-05-09T01:20:43.334Z,21.30
2024-05-09T01:23:14.019Z,21.30
2024-05-09T01:25:43.272Z,21.30
2024-05-09T01:28:10.439Z,21.30
2024-05-09T01:30:38.298Z,21.30
2024-05-09T01:33:08.047Z,21.30
2024-05-09T01:35:37.122Z,21.30
2024-05-09T01:38:04.715Z,21.30
2024-05-09T01:40:37.539Z,21.30
2024-05-09T01:43:08.002Z,21.30
2024-05-09T01:45:35.419Z,21.30
2024-05-09T01:48:02.999Z,21.30
2024-05-09T01:50:38.132Z,21.30
2024-05-09T01:53:10.195Z,21.30
2024-05-09T01:55:37.793Z,21.30
2024-05-09T01:58:05.015Z,21.30
2024-05-09T02:00:38.879Z,21.30
2024-05-09T02:03:11.783Z,21.30
2024-05-09T02:05:42.269Z,21.30
2024-05-09T02:08:17.192Z,21.20
2024-05-09T02:10:45.370Z,21.30
2024-05-09T02:13:13.310Z,21.30
2024-05-09T02:15:40.298Z,21.30
2024-05-09T02:18:08.346Z,21.30
2024-05-09T02:20:39.689Z,21.30
2024-05-09T02:23:08.300Z,21.20
2024-05-09T02:25:35.468Z,21.20
2024-05-09T02:28:02.743Z,21.20
2024-05-09T02:30:38.563Z,21.20
2024-05-09T02:33:10.602Z,21.20
2024-05-09T02:35:39.566Z,21.20
2024-05-09T02:38:06.754Z,21.20
2024-05-09T02:40:37.649Z,21.20
2024-05-09T02:43:07.851Z,21.20
2024-05-09T02:45:35.396Z,21.20
2024-05-09T02:48:02.789Z,21.20
2024-05-09T02:50:37.132Z,21.20
2024-05-09T02:53:14.050Z,21.20
2024-05-09T02:55:42.636Z,21.20
2024-05-09T02:58:10.538Z,21.20
2024-05-09T03:00:41.248Z,21.20
2024-05-09T03:03:14.887Z,21.20
2024-05-09T03:05:46.482Z,21.20
2024-05-09T03:08:14.148Z,21.20
2024-05-09T03:10:41.398Z,21.10
2024-05-09T03:13:15.092Z,21.20
2024-05-09T03:15:43.824Z,21.20
2024-05-09T03:18:11.941Z,21.10
2024-05-09T03:20:39.988Z,21.10
2024-05-09T03:23:09.597Z,21.10
2024-05-09T03:25:38.383Z,21.10
2024-05-09T03:28:05.871Z,21.10
2024-05-09T03:30:40.137Z,21.10
2024-05-09T03:33:11.384Z,21.10
2024-05-09T03:35:38.978Z,21.10
2024-05-09T03:38:06.041Z,21.10
2024-05-09T03:40:33.064Z,21.10
2024-05-09T03:43:00.017Z,21.10
2024-05-09T03:45:26.988Z,21.10
2024-05-09T03:47:54.212Z,21.10
2024-05-09T03:50:29.852Z,21.10
2024-05-09T03:53:01.759Z,21.10
2024-05-09T03:55:29.192Z,21.10
2024-05-09T03:57:56.263Z,21.10
2024-05-09T04:00:31.245Z,21.10
2024-05-09T04:03:07.145Z,21.10
2024-05-09T04:05:36.772Z,21.10
2024-05-09T04:08:03.989Z,21.00
2024-05-09T04:10:33.989Z,21.00
2024-05-09T04:13:03.265Z,21.00
2024-05-09T04:15:30.756Z,21.00
2024-05-09T04:17:58.034Z,21.00
2024-05-09T04:20:35.867Z,21.00
2024-05-09T04:23:08.156Z,21.00
2024-05-09T04:25:37.254Z,21.00
2024-05-09T04:28:04.869Z,21.00
2024-05-09T04:30:38.008Z,21.00
2024-05-09T04:33:10.270Z,21.00
2024-05-09T04:35:39.484Z,21.00
2024-05-09T04:38:06.878Z,21.00
2024-05-09T04:40:36.587Z,21.00
2024-05-09T04:43:14.494Z,21.00
2024-05-09T04:45:41.852Z,21.00
2024-05-09T04:48:09.413Z,21.00
2024-05-09T04:50:38.934Z,21.00
2024-05-09T04:53:09.542Z,21.00
2024-05-09T04:55:38.063Z,21.00
2024-05-09T04:58:10.305Z,21.00
2024-05-09T05:00:39.282Z,21.00
2024-05-09T05:03:14.267Z,21.00
2024-05-09T05:05:44.570Z,21.00
2024-05-09T05:08:17.144Z,21.00
2024-05-09T05:10:45.377Z,21.00
2024-05-09T05:13:20.184Z,21.00
2024-05-09T05:15:58.605Z,21.00
2024-05-09T05:18:27.832Z,21.00
2024-05-09T05:20:56.343Z,21.00
2024-05-09T05:23:23.961Z,21.00
2024-05-09T05:25:54.631Z,21.00
2024-05-09T05:28:22.380Z,21.00
2024-05-09T05:30:49.528Z,21.00
2024-05-09T05:33:19.141Z,21.00
2024-05-09T05:35:46.714Z,21.00
2024-05-09T05:38:13.755Z,21.00
2024-05-09T05:40:41.258Z,21.00
2024-05-09T05:43:10.370Z,21.00
2024-05-09T05:45:38.038Z,21.00
2024-05-09T05:48:06.626Z,21.00
2024-05-09T05:50:37.211Z,21.00
2024-05-09T05:53:09.694Z,21.00
2024-05-09T05:55:38.764Z,21.00
2024-05-09T05:58:08.465Z,21.00
2024-05-09T06:00:38.992Z,21.00
2024-05-09T06:03:08.834Z,21.00
2024-05-09T06:05:37.131Z,21.00
2024-05-09T06:08:04.824Z,21.00
2024-05-09T06:10:38.099Z,21.00
2024-05-09T06:13:11.565Z,21.00
2024-05-09T06:15:39.985Z,21.00
2024-05-09T06:18:08.213Z,21.00
2024-05-09T06:20:37.792Z,21.00
2024-05-09T06:23:09.980Z,21.00
2024-05-09T06:25:37.788Z,21.00
2024-05-09T06:28:05.318Z,21.00
2024-05-09T06:30:38.884Z,20.90
2024-05-09T06:33:10.825Z,20.90
2024-05-09T06:35:39.715Z,20.90
2024-05-09T06:38:09.447Z,20.90
2024-05-09T06:40:40.631Z,20.90
2024-05-09T06:43:17.776Z,20.90
2024-05-09T06:45:48.273Z,20.90
2024-05-09T06:48:19.175Z,20.90
2024-05-09T06:50:47.023Z,20.90
2024-05-09T06:53:15.031Z,20.90
2024-05-09T06:55:42.226Z,20.90
2024-05-09T06:58:09.724Z,20.90
2024-05-09T07:00:39.886Z,20.90
2024-05-09T07:03:09.967Z,20.90
2024-05-09T07:05:37.838Z,20.90
2024-05-09T07:08:06.075Z,20.90
2024-05-09T07:10:36.175Z,20.90
2024-05-09T07:13:11.698Z,20.90
2024-05-09T07:15:39.390Z,20.90
2024-05-09T07:18:18.236Z,21.00
2024-05-09T07:20:47.656Z,21.00
2024-05-09T07:23:15.564Z,21.00
2024-05-09T07:25:43.278Z,21.00
2024-05-09T07:28:13.648Z,21.00
2024-05-09T07:30:41.028Z,21.00
2024-05-09T07:33:08.226Z,21.00
2024-05-09T07:35:35.447Z,21.10
2024-05-09T07:38:02.644Z,21.10
2024-05-09T07:40:35.780Z,21.10
2024-05-09T07:43:14.603Z,21.10
2024-05-09T07:45:50.725Z,21.10
2024-05-09T07:53:39.433Z,21.10
2024-05-09T07:56:11.399Z,21.10
2024-05-09T07:58:39.323Z,21.20
2024-05-09T08:01:06.736Z,21.20
2024-05-09T08:03:34.326Z,21.20
2024-05-09T08:06:01.784Z,21.20
2024-05-09T08:08:28.774Z,21.20
2024-05-09T08:10:55.840Z,21.20
2024-05-09T08:13:23.205Z,21.20
2024-05-09T08:15:51.726Z,21.20
2024-05-09T08:18:20.056Z,21.20
2024-05-09T08:20:48.552Z,21.30
2024-05-09T08:23:15.742Z,21.30
2024-05-09T08:25:42.791Z,21.30
2024-05-09T08:28:10.862Z,21.30
2024-05-09T08:30:38.599Z,21.30
2024-05-09T08:33:06.917Z,21.30
2024-05-09T08:35:35.236Z,21.30
2024-05-09T08:38:07.308Z,21.30
2024-05-09T08:40:36.774Z,21.30
2024-05-09T08:43:11.370Z,21.30
2024-05-09T08:45:44.306Z,21.30
2024-05-09T08:48:14.773Z,21.30
2024-05-09T08:50:43.489Z,21.30
2024-05-09T08:53:10.844Z,21.40
2024-05-09T08:55:41.667Z,21.40
2024-05-09T08:58:16.618Z,21.40
2024-05-09T09:00:46.385Z,21.40
2024-05-09T09:03:24.916Z,21.40
2024-05-09T09:06:06.725Z,21.40
2024-05-09T09:08:33.712Z,21.40
2024-05-09T09:11:00.804Z,21.40
2024-05-09T09:13:27.955Z,21.40
2024-05-09T09:15:58.871Z,21.40
2024-05-09T09:18:27.168Z,21.40
2024-05-09T09:20:55.232Z,21.40
2024-05-09T09:23:22.780Z,21.40
2024-05-09T09:25:50.654Z,21.40
2024-05-09T09:28:17.992Z,21.40
2024-05-09T09:30:45.976Z,21.50
2024-05-09T09:33:13.185Z,21.40
2024-05-09T09:35:42.355Z,21.40
2024-05-09T09:38:10.649Z,21.40
2024-05-09T09:40:45.786Z,21.50
2024-05-09T09:43:23.180Z,21.50
2024-05-09T09:45:53.030Z,21.50
2024-05-09T09:48:22.424Z,21.50
2024-05-09T09:50:52.105Z,21.50
2024-05-09T09:53:20.103Z,21.50
2024-05-09T09:55:48.268Z,21.50
2024-05-09T09:58:17.973Z,21.50
2024-05-09T10:00:45.873Z,21.50
2024-05-09T10:03:13.267Z,21.50
2024-05-09T10:05:43.961Z,21.50
2024-05-09T10:08:13.812Z,21.60
2024-05-09T10:10:46.744Z,21.50
2024-05-09T10:13:14.113Z,21.60
2024-05-09T10:15:46.655Z,21.60
2024-05-09T10:18:14.884Z,21.60
2024-05-09T10:20:46.071Z,21.60
2024-05-09T10:23:23.451Z,21.60
2024-05-09T10:26:04.825Z,21.60
2024-05-09T10:28:33.644Z,21.60
2024-05-09T10:31:11.299Z,21.60
2024-05-09T10:33:52.325Z,21.60
2024-05-09T10:36:26.725Z,21.60
2024-05-09T10:38:54.694Z,21.60
2024-05-09T10:41:22.832Z,21.60
2024-05-09T10:43:50.849Z,21.70
2024-05-09T10:46:21.188Z,21.70
2024-05-09T10:48:49.537Z,21.70
2024-05-09T10:51:18.300Z,21.70
2024-05-09T10:53:47.843Z,21.70
2024-05-09T10:56:15.208Z,21.70
2024-05-09T10:58:42.391Z,21.70
2024-05-09T11:01:10.279Z,21.80
2024-05-09T11:03:39.166Z,21.80
2024-05-09T11:06:07.290Z,21.80
2024-05-09T11:08:35.943Z,21.80
2024-05-09T11:11:07.131Z,21.80
2024-05-09T11:13:36.504Z,21.80
2024-05-09T11:16:05.096Z,21.80
2024-05-09T11:18:36.518Z,21.80
2024-05-09T11:21:12.866Z,21.80
2024-05-09T11:23:40.361Z,21.80
2024-05-09T11:26:07.472Z,21.80
2024-05-09T11:28:36.317Z,21.80
2024-05-09T11:31:10.394Z,21.80
2024-05-09T11:33:43.633Z,21.80
2024-05-09T11:36:11.704Z,21.90
2024-05-09T11:38:38.998Z,21.90
2024-05-09T11:41:06.277Z,21.90
2024-05-09T11:43:33.779Z,21.90
2024-05-09T11:46:01.131Z,21.90
2024-05-09T11:48:28.649Z,21.90
2024-05-09T11:50:56.449Z,21.90
2024-05-09T11:53:23.468Z,21.90
2024-05-09T11:55:50.641Z,21.90
2024-05-09T11:58:19.171Z,21.90
2024-05-09T12:00:47.310Z,21.90
2024-05-09T12:03:14.740Z,21.90
2024-05-09T12:05:42.111Z,21.90
2024-05-09T12:08:09.564Z,21.90
2024-05-09T12:10:37.188Z,22.00
2024-05-09T12:13:06.665Z,22.00
2024-05-09T12:15:37.841Z,22.00
2024-05-09T12:18:06.972Z,22.00
2024-05-09T12:20:37.879Z,22.00
2024-05-09T12:23:09.632Z,22.00
2024-05-09T12:25:38.765Z,22.00
2024-05-09T12:28:06.697Z,22.00
2024-05-09T12:30:38.213Z,22.00
2024-05-09T12:33:14.277Z,22.00
2024-05-09T12:35:44.461Z,22.00
2024-05-09T12:38:14.902Z,22.00
2024-05-09T12:40:42.588Z,22.00
2024-05-09T12:43:10.807Z,22.00
2024-05-09T12:45:39.266Z,22.00
2024-05-09T12:48:11.865Z,22.10
2024-05-09T12:50:40.274Z,22.10
2024-05-09T12:53:07.470Z,22.10
2024-05-09T12:55:41.444Z,22.10
2024-05-09T12:58:17.289Z,22.10
2024-05-09T13:00:45.018Z,22.10
2024-05-09T13:03:12.333Z,22.10
2024-05-09T13:05:41.500Z,22.10
2024-05-09T13:08:10.284Z,22.10
2024-05-09T13:10:37.374Z,22.10
2024-05-09T13:13:04.742Z,22.10
2024-05-09T13:15:42.807Z,22.10
2024-05-09T13:18:10.173Z,22.10
2024-05-09T13:20:37.494Z,22.10
2024-05-09T13:23:06.761Z,22.10
2024-05-09T13:25:35.252Z,22.10
2024-05-09T13:28:03.639Z,22.10
2024-05-09T13:30:39.046Z,22.10
2024-05-09T13:33:13.657Z,22.10
2024-05-09T13:35:48.815Z,22.10
2024-05-09T13:38:21.841Z,22.10
2024-05-09T13:40:50.345Z,22.10
2024-05-09T13:43:18.430Z,22.10
2024-05-09T13:45:45.853Z,22.10
2024-05-09T13:48:13.369Z,22.10
2024-05-09T13:50:40.634Z,22.10
2024-05-09T13:53:08.667Z,22.10
2024-05-09T13:55:39.918Z,22.10
2024-05-09T13:58:08.149Z,22.10
2024-05-09T14:03:05.799Z,22.10
2024-05-09T14:05:33.269Z,22.10
2024-05-09T14:08:00.864Z,22.10
2024-05-09T14:10:31.163Z,22.10
2024-05-09T14:12:59.266Z,22.10
2024-05-09T14:15:26.332Z,22.10
2024-05-09T14:17:53.728Z,22.10
2024-05-09T14:20:30.289Z,22.10
2024-05-09T14:23:00.677Z,22.10
2024-05-09T14:25:29.895Z,22.10
2024-05-09T14:28:00.364Z,22.10
2024-05-09T14:30:34.814Z,22.10
2024-05-09T14:33:06.052Z,22.10
2024-05-09T14:35:33.980Z,22.10
2024-05-09T14:38:01.041Z,22.10
2024-05-09T14:40:38.802Z,22.10
2024-05-09T14:43:11.541Z,22.10
2024-05-09T14:45:38.833Z,22.10
2024-05-09T14:48:07.397Z,22.10
2024-05-09T14:50:38.508Z,22.10
2024-05-09T14:53:08.479Z,22.10
2024-05-09T14:55:37.592Z,22.10
2024-05-09T14:58:09.622Z,22.20
2024-05-09T15:00:46.001Z,22.20
2024-05-09T15:03:17.571Z,22.20
2024-05-09T15:05:45.278Z,22.20
2024-05-09T15:08:12.728Z,22.20
2024-05-09T15:10:39.865Z,22.20
2024-05-09T15:13:08.896Z,22.30
2024-05-09T15:15:37.784Z,22.30
2024-05-09T15:18:06.083Z,22.30
2024-05-09T15:20:36.281Z,22.40
2024-05-09T15:23:06.256Z,22.40
2024-05-09T15:25:34.227Z,22.40
2024-05-09T15:28:01.597Z,22.50
2024-05-09T15:30:32.086Z,22.50
2024-05-09T15:33:01.558Z,22.50
2024-05-09T15:35:29.119Z,22.60
2024-05-09T15:37:56.283Z,22.60
2024-05-09T15:40:34.475Z,22.60
2024-05-09T15:43:06.616Z,22.60
2024-05-09T15:45:34.402Z,22.60
2024-05-09T15:48:03.013Z,22.70
2024-05-09T15:50:37.213Z,22.70
2024-05-09T15:53:08.909Z,22.70
2024-05-09T15:55:36.955Z,22.70
2024-05-09T15:58:05.016Z,22.70
2024-05-09T16:00:38.315Z,22.80
2024-05-09T16:03:09.732Z,22.80
2024-05-09T16:05:37.683Z,22.80
2024-05-09T16:08:05.965Z,22.80
2024-05-09T16:10:34.601Z,22.80
2024-05-09T16:13:03.423Z,22.80
2024-05-09T16:15:31.729Z,22.80
2024-05-09T16:17:59.550Z,22.80
2024-05-09T16:20:35.015Z,22.80
2024-05-09T16:23:07.936Z,22.90
2024-05-09T16:25:35.280Z,22.90
2024-05-09T16:28:05.912Z,22.90
2024-05-09T16:30:36.323Z,22.90
2024-05-09T16:33:04.963Z,22.90
2024-05-09T16:35:34.467Z,22.90
2024-05-09T16:38:03.060Z,22.90
2024-05-09T16:40:37.409Z,22.90
2024-05-09T16:43:08.096Z,23.00
2024-05-09T16:45:36.019Z,23.20
2024-05-09T16:48:03.745Z,23.50
2024-05-09T16:50:34.227Z,23.80
2024-05-09T16:53:03.869Z,24.00
2024-05-09T16:55:34.188Z,24.10
2024-05-09T16:58:02.183Z,24.10
2024-05-09T17:00:39.323Z,24.00
2024-05-09T17:03:11.627Z,23.90
2024-05-09T17:05:40.457Z,23.80
2024-05-09T17:08:08.499Z,23.70
2024-05-09T17:10:38.776Z,23.60
2024-05-09T17:13:07.434Z,23.60
2024-05-09T17:15:37.020Z,23.50
2024-05-09T17:18:06.597Z,23.40
2024-05-09T17:20:36.410Z,23.30
2024-05-09T17:23:06.271Z,23.30
2024-05-09T17:25:34.240Z,23.20
2024-05-09T17:28:07.348Z,23.20
2024-05-09T17:30:37.947Z,23.10
2024-05-09T17:33:08.516Z,23.10
2024-05-09T17:35:36.956Z,23.00
2024-05-09T17:38:05.734Z,23.00
2024-05-09T17:40:36.029Z,23.00
2024-05-09T17:43:06.443Z,22.90
2024-05-09T17:45:35.020Z,22.90
2024-05-09T17:48:02.718Z,22.90
2024-05-09T17:50:35.660Z,22.80
2024-05-09T17:53:05.811Z,22.80
2024-05-09T17:55:33.314Z,22.80
2024-05-09T17:58:00.984Z,22.80
2024-05-09T18:00:36.543Z,22.80
2024-05-09T18:03:08.564Z,22.80
2024-05-09T18:05:37.254Z,22.80
2024-05-09T18:08:08.736Z,22.70
2024-05-09T18:10:39.007Z,22.70
2024-05-09T18:13:11.973Z,22.70
2024-05-09T18:15:40.255Z,22.70
2024-05-09T18:18:08.157Z,22.70
2024-05-09T18:20:42.678Z,22.60
2024-05-09T18:23:14.394Z,22.60
2024-05-09T18:25:42.731Z,22.60
2024-05-09T18:28:09.979Z,22.60
2024-05-09T18:30:37.693Z,22.60
2024-05-09T18:33:07.415Z,22.60
2024-05-09T18:35:36.102Z,22.50
2024-05-09T18:38:03.772Z,22.50
2024-05-09T18:40:34.910Z,22.50
2024-05-09T18:43:06.758Z,22.50
2024-05-09T18:45:35.990Z,22.50
2024-05-09T18:48:05.063Z,22.50
2024-05-09T18:50:37.231Z,22.50
2024-05-09T18:53:07.112Z,22.50
2024-05-09T18:55:34.228Z,22.50
2024-05-09T18:58:01.467Z,22.40
2024-05-09T19:00:35.045Z,22.40
2024-05-09T19:03:09.672Z,22.40
2024-05-09T19:05:40.380Z,22.40
2024-05-09T19:08:08.417Z,22.40
2024-05-09T19:10:38.718Z,22.40
2024-05-09T19:13:10.496Z,22.40
2024-05-09T19:15:40.938Z,22.40
2024-05-09T19:18:09.733Z,22.40
2024-05-09T19:20:37.728Z,22.40
2024-05-09T19:23:06.830Z,22.40
2024-05-09T19:25:35.002Z,22.40
2024-05-09T19:28:03.034Z,22.40
2024-05-09T19:30:38.219Z,22.40
2024-05-09T19:33:10.354Z,22.40
2024-05-09T19:35:38.838Z,22.30
2024-05-09T19:38:06.760Z,22.30
2024-05-09T19:40:35.143Z,22.40
2024-05-09T19:43:05.306Z,22.30
2024-05-09T19:45:34.826Z,22.30
2024-05-09T19:48:04.228Z,22.30
2024-05-09T19:50:39.884Z,22.30
2024-05-09T19:53:12.040Z,22.30
2024-05-09T19:55:39.826Z,22.30
2024-05-09T19:58:07.965Z,22.30
2024-05-09T20:00:38.608Z,22.30
2024-05-09T20:03:08.365Z,22.30
2024-05-09T20:05:36.435Z,22.30
2024-05-09T20:08:04.627Z,22.30
2024-05-09T20:10:34.271Z,22.30
2024-05-09T20:13:03.702Z,22.30
2024-05-09T20:15:34.363Z,22.30
2024-05-09T20:18:02.016Z,22.30
2024-05-09T20:20:37.054Z,22.30
2024-05-09T20:23:08.836Z,22.20
2024-05-09T20:25:36.121Z,22.30
2024-05-09T20:28:03.450Z,22.30
2024-05-09T20:30:33.037Z,22.30
2024-05-09T20:33:09.265Z,22.30
2024-05-09T20:35:37.213Z,22.20
2024-05-09T20:38:05.085Z,22.20
2024-05-09T20:40:36.930Z,22.20
2024-05-09T20:43:07.770Z,22.20
2024-05-09T20:45:36.031Z,22.20
2024-05-09T20:48:03.329Z,22.20
2024-05-09T20:50:38.264Z,22.20
2024-05-09T20:53:13.497Z,22.20
2024-05-09T20:55:42.394Z,22.20
2024-05-09T20:58:10.285Z,22.20
2024-05-09T21:00:41.407Z,22.20
2024-05-09T21:03:12.712Z,22.20
2024-05-09T21:05:41.020Z,22.20
2024-05-09T21:08:08.335Z,22.20
2024-05-09T21:10:36.835Z,22.20
2024-05-09T21:13:05.240Z,22.20
2024-05-09T21:15:33.075Z,22.20
2024-05-09T21:18:00.230Z,22.20
2024-05-09T21:20:31.559Z,22.20
2024-05-09T21:23:04.054Z,22.20
2024-05-09T21:25:32.229Z,22.20
2024-05-09T21:28:00.301Z,22.20
2024-05-09T21:30:37.533Z,22.20
2024-05-09T21:33:11.275Z,22.10
2024-05-09T21:35:40.773Z,22.20
2024-05-09T21:38:08.131Z,22.10
2024-05-09T21:40:36.733Z,22.20
2024-05-09T21:43:05.525Z,22.20
2024-05-09T21:45:33.650Z,22.20
2024-05-09T21:48:04.129Z,22.20
2024-05-09T21:50:39.047Z,22.20
2024-05-09T21:53:09.075Z,22.20
2024-05-09T21:55:36.419Z,22.10
2024-05-09T21:58:03.873Z,22.20
2024-05-09T22:00:36.774Z,22.10
2024-05-09T22:03:07.690Z,22.10
2024-05-09T22:05:35.870Z,22.10
2024-05-09T22:08:03.557Z,22.10
2024-05-09T22:10:34.868Z,22.10
2024-05-09T22:13:07.333Z,22.10
2024-05-09T22:15:36.539Z,22.10
2024-05-09T22:18:05.219Z,22.10
2024-05-09T22:20:37.290Z,22.10
2024-05-09T22:23:06.523Z,22.10
2024-05-09T22:25:33.869Z,22.10
2024-05-09T22:28:02.442Z,22.10
2024-05-09T22:32:59.725Z,22.10
2024-05-09T22:35:26.836Z,22.10
2024-05-09T22:37:53.813Z,22.10
2024-05-09T22:40:29.448Z,22.10
2024-05-09T22:43:06.133Z,22.10
2024-05-09T22:45:33.460Z,22.10
2024-05-09T22:48:00.749Z,22.10
2024-05-09T22:50:32.922Z,22.10
2024-05-09T22:53:00.901Z,22.10
2024-05-09T22:55:28.038Z,22.10
2024-05-09T22:57:55.213Z,22.10
2024-05-09T23:00:30.882Z,22.00
2024-05-09T23:03:02.951Z,22.10
2024-05-09T23:05:30.987Z,22.00
2024-05-09T23:07:58.230Z,22.00
2024-05-09T23:10:32.217Z,22.10
2024-05-09T23:13:04.124Z,22.10
2024-05-09T23:15:31.372Z,22.00
2024-05-09T23:17:58.983Z,22.00
2024-05-09T23:20:33.743Z,22.00
2024-05-09T23:23:10.563Z,22.00
2024-05-09T23:25:39.160Z,22.00
2024-05-09T23:28:06.692Z,22.00
2024-05-09T23:30:38.419Z,22.00
2024-05-09T23:33:09.317Z,22.00
2024-05-09T23:35:36.579Z,22.00
2024-05-09T23:38:03.958Z,22.00
2024-05-09T23:40:38.313Z,22.00
2024-05-09T23:43:08.954Z,22.00
2024-05-09T23:45:36.483Z,22.00
2024-05-09T23:48:04.048Z,22.00
2024-05-09T23:50:35.683Z,22.00
2024-05-09T23:53:06.121Z,22.00
2024-05-09T23:55:33.991Z,22.00
2024-05-09T23:58:01.146Z,22.00
